CSN6625 ZHCC-ZGGG
Flight info
| Callsign | CSN6625 |
|---|---|
| Flight time | N/A |
| Altitude | 32100 |
| Route | DUD9W DUDBI W37 OMBEB R473 BEMAG V5 ENVIP ENVIP8 |
| Aircraft | B77W/H-SDE1E2E3FGHIJ2J3J4J5M1RWXY/LB1D1 |
Departure
| Time | 2026-04-24 12:56 |
|---|---|
| Airport | Zhengzhou Xinzheng International Airport (ZHCC) |
Arrival
| Time | N/A |
|---|---|
| Airport | Guangzhou Baiyun International Airport (ZGGG) |
| Time | Latitude | Longitude | Altitude | Speed | Heading |
|---|---|---|---|---|---|
| 2026-04-24 12:15 | 34.52689 | 113.85149 | 510 ft | 0 kts | 292° |
| 2026-04-24 12:47 | 34.52689 | 113.85151 | 510 ft | 2 kts | 292° |
| 2026-04-24 12:47 | 34.52679 | 113.85179 | 510 ft | 4 kts | 292° |
| 2026-04-24 12:47 | 34.52669 | 113.85209 | 510 ft | 4 kts | 292° |
| 2026-04-24 12:48 | 34.52659 | 113.85239 | 510 ft | 4 kts | 292° |
| 2026-04-24 12:48 | 34.52648 | 113.85269 | 510 ft | 3 kts | 292° |
| 2026-04-24 12:48 | 34.52638 | 113.85294 | 510 ft | 4 kts | 312° |
| 2026-04-24 12:48 | 34.52618 | 113.85310 | 510 ft | 4 kts | 355° |
| 2026-04-24 12:49 | 34.52592 | 113.85306 | 510 ft | 4 kts | 21° |
| 2026-04-24 12:49 | 34.52570 | 113.85295 | 510 ft | 1 kts | 22° |
| 2026-04-24 12:51 | 34.52608 | 113.85314 | 510 ft | 19 kts | 22° |
| 2026-04-24 12:51 | 34.52755 | 113.85388 | 510 ft | 23 kts | 22° |
| 2026-04-24 12:51 | 34.52905 | 113.85463 | 510 ft | 23 kts | 22° |
| 2026-04-24 12:52 | 34.53056 | 113.85538 | 510 ft | 23 kts | 22° |
| 2026-04-24 12:52 | 34.53207 | 113.85607 | 509 ft | 22 kts | 4° |
| 2026-04-24 12:52 | 34.53274 | 113.85512 | 509 ft | 16 kts | 293° |
| 2026-04-24 12:52 | 34.53347 | 113.85298 | 509 ft | 36 kts | 292° |
| 2026-04-24 12:53 | 34.53440 | 113.85024 | 509 ft | 34 kts | 292° |
| 2026-04-24 12:53 | 34.53529 | 113.84765 | 509 ft | 31 kts | 292° |
| 2026-04-24 12:53 | 34.53609 | 113.84527 | 509 ft | 30 kts | 292° |
| 2026-04-24 12:53 | 34.53689 | 113.84294 | 509 ft | 30 kts | 292° |
| 2026-04-24 12:54 | 34.53768 | 113.84062 | 509 ft | 26 kts | 292° |
| 2026-04-24 12:54 | 34.53829 | 113.84014 | 509 ft | 0 kts | 19° |
| 2026-04-24 12:54 | 34.53835 | 113.84017 | 509 ft | 2 kts | 19° |
| 2026-04-24 12:54 | 34.53900 | 113.84047 | 508 ft | 19 kts | 25° |
| 2026-04-24 12:55 | 34.53914 | 113.84175 | 508 ft | 0 kts | 113° |
| 2026-04-24 12:55 | 34.53907 | 113.84197 | 508 ft | 1 kts | 112° |
| 2026-04-24 12:55 | 34.53903 | 113.84207 | 508 ft | 2 kts | 112° |
| 2026-04-24 12:55 | 34.53876 | 113.84287 | 508 ft | 31 kts | 112° |
| 2026-04-24 12:56 | 34.53679 | 113.84867 | 506 ft | 116 kts | 112° |
| 2026-04-24 12:56 | 34.53269 | 113.86053 | 504 ft | 186 kts | 114° |
| 2026-04-24 12:56 | 34.52713 | 113.87637 | 842 ft | 211 kts | 113° |
| 2026-04-24 12:56 | 34.51946 | 113.89086 | 1612 ft | 198 kts | 143° |
| 2026-04-24 12:57 | 34.50806 | 113.89780 | 2463 ft | 176 kts | 162° |
| 2026-04-24 12:57 | 34.49656 | 113.90376 | 2957 ft | 187 kts | 160° |
| 2026-04-24 12:57 | 34.48360 | 113.91086 | 3031 ft | 226 kts | 159° |
| 2026-04-24 12:57 | 34.46842 | 113.91943 | 3040 ft | 249 kts | 158° |
| 2026-04-24 12:58 | 34.45278 | 113.92858 | 2980 ft | 250 kts | 157° |
| 2026-04-24 12:58 | 34.43714 | 113.93797 | 3171 ft | 252 kts | 157° |
| 2026-04-24 12:58 | 34.42134 | 113.94762 | 4005 ft | 259 kts | 156° |
| 2026-04-24 12:58 | 34.40509 | 113.95767 | 4888 ft | 265 kts | 155° |
| 2026-04-24 12:59 | 34.38861 | 113.96797 | 5833 ft | 268 kts | 154° |
| 2026-04-24 12:59 | 34.37218 | 113.97833 | 6693 ft | 272 kts | 154° |
| 2026-04-24 12:59 | 34.35525 | 113.98905 | 7505 ft | 278 kts | 154° |
| 2026-04-24 12:59 | 34.33793 | 114.00008 | 8299 ft | 285 kts | 153° |
| 2026-04-24 13:00 | 34.32019 | 114.01139 | 9088 ft | 292 kts | 153° |
| 2026-04-24 13:00 | 34.30208 | 114.02297 | 9894 ft | 298 kts | 152° |
| 2026-04-24 13:00 | 34.28342 | 114.03490 | 10467 ft | 311 kts | 152° |
| 2026-04-24 13:00 | 34.26314 | 114.04787 | 10696 ft | 340 kts | 152° |
| 2026-04-24 13:01 | 34.24163 | 114.06164 | 10912 ft | 368 kts | 152° |
| 2026-04-24 13:01 | 34.21842 | 114.07649 | 11450 ft | 385 kts | 152° |
| 2026-04-24 13:01 | 34.19447 | 114.09181 | 11876 ft | 393 kts | 152° |
| 2026-04-24 13:01 | 34.17009 | 114.10740 | 12729 ft | 399 kts | 152° |
| 2026-04-24 13:02 | 34.14538 | 114.12320 | 13799 ft | 404 kts | 152° |
| 2026-04-24 13:02 | 34.12036 | 114.13918 | 14755 ft | 409 kts | 152° |
| 2026-04-24 13:02 | 34.09507 | 114.15533 | 15741 ft | 413 kts | 152° |
| 2026-04-24 13:02 | 34.06952 | 114.17162 | 16706 ft | 418 kts | 153° |
| 2026-04-24 13:03 | 34.04362 | 114.18813 | 17645 ft | 423 kts | 153° |
| 2026-04-24 13:03 | 34.01741 | 114.20482 | 18537 ft | 429 kts | 153° |
| 2026-04-24 13:03 | 33.99086 | 114.22172 | 19329 ft | 434 kts | 153° |
| 2026-04-24 13:03 | 33.96399 | 114.23881 | 20121 ft | 439 kts | 153° |
| 2026-04-24 13:04 | 33.93679 | 114.25609 | 20897 ft | 444 kts | 153° |
| 2026-04-24 13:04 | 33.90928 | 114.27356 | 21660 ft | 450 kts | 153° |
| 2026-04-24 13:04 | 33.88145 | 114.29122 | 22411 ft | 455 kts | 154° |
| 2026-04-24 13:04 | 33.85329 | 114.30907 | 23147 ft | 460 kts | 154° |
| 2026-04-24 13:05 | 33.82480 | 114.32712 | 23818 ft | 465 kts | 154° |
| 2026-04-24 13:05 | 33.79603 | 114.34534 | 24420 ft | 470 kts | 154° |
| 2026-04-24 13:05 | 33.76699 | 114.36372 | 25033 ft | 474 kts | 154° |
| 2026-04-24 13:05 | 33.73771 | 114.38223 | 25613 ft | 478 kts | 154° |
| 2026-04-24 13:06 | 33.70818 | 114.40088 | 26205 ft | 481 kts | 154° |
| 2026-04-24 13:06 | 33.67845 | 114.41965 | 26787 ft | 485 kts | 154° |
| 2026-04-24 13:06 | 33.64846 | 114.43857 | 27335 ft | 489 kts | 155° |
| 2026-04-24 13:06 | 33.61825 | 114.45760 | 27867 ft | 493 kts | 155° |
| 2026-04-24 13:07 | 33.58779 | 114.47679 | 28371 ft | 496 kts | 155° |
| 2026-04-24 13:07 | 33.55713 | 114.49608 | 28850 ft | 500 kts | 155° |
| 2026-04-24 13:07 | 33.52624 | 114.51551 | 29311 ft | 503 kts | 155° |
| 2026-04-24 13:07 | 33.49511 | 114.53506 | 29745 ft | 506 kts | 155° |
| 2026-04-24 13:08 | 33.46383 | 114.55470 | 30140 ft | 510 kts | 155° |
| 2026-04-24 13:08 | 33.43232 | 114.57447 | 30440 ft | 512 kts | 155° |
| 2026-04-24 13:08 | 33.40068 | 114.59431 | 30754 ft | 515 kts | 155° |
| 2026-04-24 13:09 | 33.33707 | 114.63414 | 31441 ft | 516 kts | 155° |
| 2026-04-24 13:09 | 33.30526 | 114.65404 | 31852 ft | 515 kts | 155° |
| 2026-04-24 13:09 | 33.27351 | 114.67388 | 32183 ft | 516 kts | 155° |
| 2026-04-24 13:09 | 33.24127 | 114.69281 | 32128 ft | 515 kts | 161° |
| 2026-04-24 13:10 | 33.20734 | 114.70555 | 32145 ft | 508 kts | 172° |
| 2026-04-24 13:10 | 33.17262 | 114.71128 | 32134 ft | 501 kts | 180° |
| 2026-04-24 13:10 | 33.10402 | 114.70641 | 32146 ft | 493 kts | 191° |
| 2026-04-24 13:11 | 33.03542 | 114.69870 | 32139 ft | 496 kts | 189° |
| 2026-04-24 13:11 | 32.96648 | 114.69211 | 32140 ft | 498 kts | 189° |
| 2026-04-24 13:12 | 32.89751 | 114.68537 | 32133 ft | 497 kts | 189° |
| 2026-04-24 13:12 | 32.82871 | 114.67869 | 32135 ft | 495 kts | 189° |
| 2026-04-24 13:13 | 32.76008 | 114.67229 | 32140 ft | 494 kts | 189° |
| 2026-04-24 13:13 | 32.69156 | 114.66590 | 32132 ft | 493 kts | 189° |
| 2026-04-24 13:14 | 32.62323 | 114.65949 | 32139 ft | 492 kts | 189° |
| 2026-04-24 13:14 | 32.55506 | 114.65309 | 32145 ft | 491 kts | 189° |
| 2026-04-24 13:15 | 32.48688 | 114.64671 | 32148 ft | 491 kts | 189° |
| 2026-04-24 13:15 | 32.41877 | 114.64034 | 32141 ft | 491 kts | 189° |
| 2026-04-24 13:16 | 32.35110 | 114.63397 | 32141 ft | 491 kts | 190° |
| 2026-04-24 13:16 | 32.28296 | 114.62734 | 32142 ft | 492 kts | 190° |
| 2026-04-24 13:17 | 32.21477 | 114.62067 | 32121 ft | 492 kts | 190° |
| 2026-04-24 13:17 | 32.14653 | 114.61404 | 32142 ft | 492 kts | 190° |
| 2026-04-24 13:18 | 32.07815 | 114.60741 | 32151 ft | 493 kts | 190° |
| 2026-04-24 13:18 | 32.00968 | 114.60080 | 32150 ft | 494 kts | 190° |
| 2026-04-24 13:19 | 31.94119 | 114.59419 | 32142 ft | 494 kts | 190° |
| 2026-04-24 13:19 | 31.87275 | 114.58760 | 32155 ft | 493 kts | 190° |
| 2026-04-24 13:20 | 31.80441 | 114.58102 | 32158 ft | 493 kts | 190° |
| 2026-04-24 13:20 | 31.73610 | 114.57446 | 32160 ft | 492 kts | 190° |
| 2026-04-24 13:21 | 31.66787 | 114.56791 | 32149 ft | 491 kts | 190° |
| 2026-04-24 13:21 | 31.59982 | 114.56135 | 32154 ft | 490 kts | 190° |
| 2026-04-24 13:22 | 31.53193 | 114.55478 | 32163 ft | 490 kts | 190° |
| 2026-04-24 13:22 | 31.46399 | 114.54820 | 32160 ft | 490 kts | 190° |
| 2026-04-24 13:23 | 31.39605 | 114.54164 | 32157 ft | 490 kts | 189° |
| 2026-04-24 13:23 | 31.32810 | 114.53510 | 32161 ft | 490 kts | 190° |
| 2026-04-24 13:24 | 31.26041 | 114.52690 | 32157 ft | 486 kts | 195° |
| 2026-04-24 13:24 | 31.19633 | 114.50476 | 32159 ft | 477 kts | 206° |
| 2026-04-24 13:25 | 31.13712 | 114.47133 | 32160 ft | 472 kts | 211° |
| 2026-04-24 13:25 | 31.07825 | 114.43727 | 32167 ft | 472 kts | 211° |
| 2026-04-24 13:26 | 31.01925 | 114.40368 | 32162 ft | 472 kts | 210° |
| 2026-04-24 13:26 | 30.96030 | 114.37009 | 32151 ft | 471 kts | 211° |
| 2026-04-24 13:27 | 30.90130 | 114.33692 | 32168 ft | 472 kts | 209° |
| 2026-04-24 13:27 | 30.84164 | 114.30603 | 32171 ft | 473 kts | 208° |
| 2026-04-24 13:28 | 30.79142 | 114.27968 | 32176 ft | 473 kts | 209° |
| 2026-04-24 13:28 | 30.73193 | 114.24738 | 32165 ft | 471 kts | 210° |
| 2026-04-24 13:29 | 30.67268 | 114.21515 | 32178 ft | 470 kts | 210° |
| 2026-04-24 13:29 | 30.65308 | 114.20453 | 32172 ft | 470 kts | 210° |